Terminal Aerodrome Forecast
Issued by NWS Memphis, TN

Home | Current Version | Previous Version | Text Only | Print | Product List | Glossary On
Versions: 1 2 3 4 5 6 7 8 9 10 11 12 13
000
FTUS44 KMEG 222321
TAFJBR
TAF
KJBR 222321Z 2300/2324 06003KT P6SM SCT250
     FM230600 06003KT P6SM BKN100
     FM231400 13008KT P6SM BKN070
     FM232200 13008KT P6SM FEW100=

USA.gov is the U.S. government's official web portal to all federal, state and local government web resources and services.